sensor_id;sensor_type;location;lat;lon;timestamp;P1;durP1;ratioP1;P2;durP2;ratioP2
5559;SDS011;2803;47.916;8.074;2023-04-24T00:01:39;1.13;;;0.80;;
5559;SDS011;2803;47.916;8.074;2023-04-24T00:04:07;2.33;;;0.80;;
5559;SDS011;2803;47.916;8.074;2023-04-24T00:06:37;17.93;;;1.67;;
5559;SDS011;2803;47.916;8.074;2023-04-24T00:09:03;4.07;;;1.00;;
5559;SDS011;2803;47.916;8.074;2023-04-24T00:11:30;3.67;;;0.90;;
5559;SDS011;2803;47.916;8.074;2023-04-24T00:13:57;8.23;;;1.20;;
5559;SDS011;2803;47.916;8.074;2023-04-24T00:16:23;6.87;;;0.93;;
5559;SDS011;2803;47.916;8.074;2023-04-24T00:18:50;3.83;;;1.00;;
5559;SDS011;2803;47.916;8.074;2023-04-24T00:21:17;1.47;;;0.90;;
5559;SDS011;2803;47.916;8.074;2023-04-24T00:23:45;8.33;;;1.27;;
5559;SDS011;2803;47.916;8.074;2023-04-24T00:26:12;2.60;;;0.70;;
5559;SDS011;2803;47.916;8.074;2023-04-24T00:28:39;4.30;;;0.83;;
5559;SDS011;2803;47.916;8.074;2023-04-24T00:31:05;1.43;;;0.80;;
5559;SDS011;2803;47.916;8.074;2023-04-24T00:33:32;1.67;;;0.80;;
5559;SDS011;2803;47.916;8.074;2023-04-24T00:35:59;1.50;;;0.70;;
5559;SDS011;2803;47.916;8.074;2023-04-24T00:38:26;2.87;;;1.07;;
5559;SDS011;2803;47.916;8.074;2023-04-24T00:40:54;3.73;;;1.03;;
5559;SDS011;2803;47.916;8.074;2023-04-24T00:43:21;5.63;;;1.00;;
5559;SDS011;2803;47.916;8.074;2023-04-24T00:45:48;5.50;;;1.23;;
5559;SDS011;2803;47.916;8.074;2023-04-24T00:48:14;1.20;;;0.70;;
5559;SDS011;2803;47.916;8.074;2023-04-24T00:50:42;5.30;;;1.03;;
5559;SDS011;2803;47.916;8.074;2023-04-24T00:53:09;2.63;;;0.87;;
5559;SDS011;2803;47.916;8.074;2023-04-24T00:55:36;3.13;;;0.87;;
5559;SDS011;2803;47.916;8.074;2023-04-24T00:58:04;3.10;;;0.80;;
5559;SDS011;2803;47.916;8.074;2023-04-24T01:00:31;1.27;;;0.90;;
5559;SDS011;2803;47.916;8.074;2023-04-24T01:02:57;3.23;;;0.80;;
5559;SDS011;2803;47.916;8.074;2023-04-24T01:05:27;9.47;;;1.10;;
5559;SDS011;2803;47.916;8.074;2023-04-24T01:07:54;1.50;;;0.73;;
5559;SDS011;2803;47.916;8.074;2023-04-24T01:10:21;2.27;;;0.90;;
5559;SDS011;2803;47.916;8.074;2023-04-24T01:12:49;2.00;;;0.73;;
5559;SDS011;2803;47.916;8.074;2023-04-24T01:15:17;4.90;;;1.10;;
5559;SDS011;2803;47.916;8.074;2023-04-24T01:17:44;4.43;;;1.03;;
5559;SDS011;2803;47.916;8.074;2023-04-24T01:20:11;1.87;;;0.83;;
5559;SDS011;2803;47.916;8.074;2023-04-24T01:22:41;1.73;;;0.90;;
5559;SDS011;2803;47.916;8.074;2023-04-24T01:25:08;2.40;;;0.87;;
5559;SDS011;2803;47.916;8.074;2023-04-24T01:27:35;3.53;;;0.87;;
5559;SDS011;2803;47.916;8.074;2023-04-24T01:30:02;3.70;;;0.77;;
5559;SDS011;2803;47.916;8.074;2023-04-24T01:32:29;1.47;;;0.67;;
5559;SDS011;2803;47.916;8.074;2023-04-24T01:34:55;1.07;;;0.70;;
5559;SDS011;2803;47.916;8.074;2023-04-24T01:37:22;1.00;;;0.77;;
5559;SDS011;2803;47.916;8.074;2023-04-24T01:39:50;4.50;;;0.70;;
5559;SDS011;2803;47.916;8.074;2023-04-24T01:42:17;3.27;;;0.87;;
5559;SDS011;2803;47.916;8.074;2023-04-24T01:44:44;3.13;;;1.70;;
5559;SDS011;2803;47.916;8.074;2023-04-24T01:47:10;1.43;;;0.70;;
5559;SDS011;2803;47.916;8.074;2023-04-24T01:49:38;2.30;;;0.87;;
5559;SDS011;2803;47.916;8.074;2023-04-24T01:52:05;1.83;;;0.80;;
5559;SDS011;2803;47.916;8.074;2023-04-24T01:54:32;2.30;;;0.73;;
5559;SDS011;2803;47.916;8.074;2023-04-24T01:56:59;5.27;;;1.00;;
5559;SDS011;2803;47.916;8.074;2023-04-24T01:59:26;1.00;;;0.70;;
5559;SDS011;2803;47.916;8.074;2023-04-24T02:01:54;1.20;;;0.80;;
5559;SDS011;2803;47.916;8.074;2023-04-24T02:04:21;3.33;;;0.80;;
5559;SDS011;2803;47.916;8.074;2023-04-24T02:06:47;1.17;;;0.60;;
5559;SDS011;2803;47.916;8.074;2023-04-24T02:09:14;1.10;;;0.70;;
5559;SDS011;2803;47.916;8.074;2023-04-24T02:11:40;8.83;;;1.10;;
5559;SDS011;2803;47.916;8.074;2023-04-24T02:14:08;2.80;;;0.87;;
5559;SDS011;2803;47.916;8.074;2023-04-24T02:16:35;3.10;;;0.80;;
5559;SDS011;2803;47.916;8.074;2023-04-24T02:19:01;2.80;;;0.70;;
5559;SDS011;2803;47.916;8.074;2023-04-24T02:21:28;4.97;;;1.13;;
5559;SDS011;2803;47.916;8.074;2023-04-24T02:23:55;3.50;;;0.97;;
5559;SDS011;2803;47.916;8.074;2023-04-24T02:26:22;3.13;;;0.80;;
5559;SDS011;2803;47.916;8.074;2023-04-24T02:28:49;8.13;;;1.33;;
5559;SDS011;2803;47.916;8.074;2023-04-24T02:31:18;1.67;;;0.90;;
5559;SDS011;2803;47.916;8.074;2023-04-24T02:33:44;1.57;;;0.87;;
5559;SDS011;2803;47.916;8.074;2023-04-24T02:36:11;2.90;;;1.07;;
5559;SDS011;2803;47.916;8.074;2023-04-24T02:38:38;1.10;;;0.70;;
5559;SDS011;2803;47.916;8.074;2023-04-24T02:41:04;3.13;;;0.80;;
5559;SDS011;2803;47.916;8.074;2023-04-24T02:43:31;2.80;;;0.70;;
5559;SDS011;2803;47.916;8.074;2023-04-24T02:45:58;1.60;;;0.80;;
5559;SDS011;2803;47.916;8.074;2023-04-24T02:48:26;3.20;;;0.97;;
5559;SDS011;2803;47.916;8.074;2023-04-24T02:50:53;2.13;;;1.00;;
5559;SDS011;2803;47.916;8.074;2023-04-24T02:53:19;2.70;;;0.80;;
5559;SDS011;2803;47.916;8.074;2023-04-24T02:55:46;3.50;;;0.90;;
5559;SDS011;2803;47.916;8.074;2023-04-24T02:58:13;1.37;;;0.80;;
5559;SDS011;2803;47.916;8.074;2023-04-24T03:00:39;2.40;;;0.70;;
5559;SDS011;2803;47.916;8.074;2023-04-24T03:03:06;2.07;;;0.70;;
5559;SDS011;2803;47.916;8.074;2023-04-24T03:05:34;2.17;;;0.70;;
5559;SDS011;2803;47.916;8.074;2023-04-24T03:08:01;2.40;;;0.70;;
5559;SDS011;2803;47.916;8.074;2023-04-24T03:10:27;1.10;;;0.50;;
5559;SDS011;2803;47.916;8.074;2023-04-24T03:12:54;4.30;;;0.77;;
5559;SDS011;2803;47.916;8.074;2023-04-24T03:15:21;3.47;;;0.80;;
5559;SDS011;2803;47.916;8.074;2023-04-24T03:17:47;3.37;;;0.80;;
5559;SDS011;2803;47.916;8.074;2023-04-24T03:20:14;1.63;;;0.70;;
5559;SDS011;2803;47.916;8.074;2023-04-24T03:22:42;2.20;;;0.70;;
5559;SDS011;2803;47.916;8.074;2023-04-24T03:25:08;1.50;;;0.70;;
5559;SDS011;2803;47.916;8.074;2023-04-24T03:27:35;1.63;;;0.73;;
5559;SDS011;2803;47.916;8.074;2023-04-24T03:30:02;8.83;;;0.80;;
5559;SDS011;2803;47.916;8.074;2023-04-24T03:32:29;1.50;;;0.70;;
5559;SDS011;2803;47.916;8.074;2023-04-24T03:34:57;2.90;;;0.70;;
5559;SDS011;2803;47.916;8.074;2023-04-24T03:37:23;6.77;;;0.80;;
5559;SDS011;2803;47.916;8.074;2023-04-24T03:39:52;0.90;;;0.70;;
5559;SDS011;2803;47.916;8.074;2023-04-24T03:42:19;2.10;;;0.70;;
5559;SDS011;2803;47.916;8.074;2023-04-24T03:44:45;2.53;;;0.70;;
5559;SDS011;2803;47.916;8.074;2023-04-24T03:47:12;0.90;;;0.50;;
5559;SDS011;2803;47.916;8.074;2023-04-24T03:49:38;0.90;;;0.60;;
5559;SDS011;2803;47.916;8.074;2023-04-24T03:52:05;2.47;;;0.70;;
5559;SDS011;2803;47.916;8.074;2023-04-24T03:54:31;1.00;;;0.60;;
5559;SDS011;2803;47.916;8.074;2023-04-24T03:56:59;4.93;;;0.80;;
5559;SDS011;2803;47.916;8.074;2023-04-24T03:59:27;3.20;;;0.70;;
5559;SDS011;2803;47.916;8.074;2023-04-24T04:01:53;3.80;;;0.80;;
5559;SDS011;2803;47.916;8.074;2023-04-24T04:04:20;2.27;;;0.80;;
5559;SDS011;2803;47.916;8.074;2023-04-24T04:06:46;2.97;;;0.73;;
5559;SDS011;2803;47.916;8.074;2023-04-24T04:09:13;1.83;;;0.80;;
5559;SDS011;2803;47.916;8.074;2023-04-24T04:11:40;2.53;;;0.70;;
5559;SDS011;2803;47.916;8.074;2023-04-24T04:14:08;0.90;;;0.70;;
5559;SDS011;2803;47.916;8.074;2023-04-24T04:16:35;0.90;;;0.63;;
5559;SDS011;2803;47.916;8.074;2023-04-24T04:19:02;2.93;;;0.80;;
5559;SDS011;2803;47.916;8.074;2023-04-24T04:21:28;2.40;;;0.80;;
5559;SDS011;2803;47.916;8.074;2023-04-24T04:23:56;3.83;;;0.77;;
5559;SDS011;2803;47.916;8.074;2023-04-24T04:26:22;4.03;;;0.80;;
5559;SDS011;2803;47.916;8.074;2023-04-24T04:28:50;1.60;;;0.87;;
5559;SDS011;2803;47.916;8.074;2023-04-24T04:31:18;2.80;;;1.10;;
5559;SDS011;2803;47.916;8.074;2023-04-24T04:33:45;1.50;;;1.30;;
5559;SDS011;2803;47.916;8.074;2023-04-24T04:36:12;3.10;;;1.30;;
5559;SDS011;2803;47.916;8.074;2023-04-24T04:38:39;2.60;;;1.23;;
5559;SDS011;2803;47.916;8.074;2023-04-24T04:41:08;2.73;;;1.20;;
5559;SDS011;2803;47.916;8.074;2023-04-24T04:43:34;3.53;;;1.30;;
5559;SDS011;2803;47.916;8.074;2023-04-24T04:46:01;3.83;;;1.40;;
5559;SDS011;2803;47.916;8.074;2023-04-24T04:48:29;2.43;;;1.27;;
5559;SDS011;2803;47.916;8.074;2023-04-24T04:50:56;2.20;;;1.20;;
5559;SDS011;2803;47.916;8.074;2023-04-24T04:53:23;3.50;;;1.60;;
5559;SDS011;2803;47.916;8.074;2023-04-24T04:55:50;1.60;;;1.43;;
5559;SDS011;2803;47.916;8.074;2023-04-24T04:58:17;3.10;;;1.50;;
5559;SDS011;2803;47.916;8.074;2023-04-24T05:00:44;6.23;;;1.70;;
5559;SDS011;2803;47.916;8.074;2023-04-24T05:03:11;2.87;;;1.40;;
5559;SDS011;2803;47.916;8.074;2023-04-24T05:05:39;1.60;;;1.20;;
5559;SDS011;2803;47.916;8.074;2023-04-24T05:08:06;3.77;;;1.63;;
5559;SDS011;2803;47.916;8.074;2023-04-24T05:10:33;4.63;;;1.67;;
5559;SDS011;2803;47.916;8.074;2023-04-24T05:12:59;2.13;;;1.60;;
5559;SDS011;2803;47.916;8.074;2023-04-24T05:15:26;11.93;;;1.80;;
5559;SDS011;2803;47.916;8.074;2023-04-24T05:17:52;2.67;;;1.43;;
5559;SDS011;2803;47.916;8.074;2023-04-24T05:20:19;4.30;;;1.77;;
5559;SDS011;2803;47.916;8.074;2023-04-24T05:22:47;3.73;;;1.60;;
5559;SDS011;2803;47.916;8.074;2023-04-24T05:25:14;4.00;;;1.37;;
5559;SDS011;2803;47.916;8.074;2023-04-24T05:27:40;3.87;;;1.50;;
5559;SDS011;2803;47.916;8.074;2023-04-24T05:30:07;1.93;;;1.60;;
5559;SDS011;2803;47.916;8.074;2023-04-24T05:32:35;3.30;;;1.70;;
5559;SDS011;2803;47.916;8.074;2023-04-24T05:35:01;7.53;;;2.33;;
5559;SDS011;2803;47.916;8.074;2023-04-24T05:37:28;3.50;;;1.50;;
5559;SDS011;2803;47.916;8.074;2023-04-24T05:39:56;6.93;;;2.10;;
5559;SDS011;2803;47.916;8.074;2023-04-24T05:42:22;2.30;;;1.47;;
5559;SDS011;2803;47.916;8.074;2023-04-24T05:44:49;5.30;;;2.30;;
5559;SDS011;2803;47.916;8.074;2023-04-24T05:47:16;4.07;;;1.50;;
5559;SDS011;2803;47.916;8.074;2023-04-24T05:49:43;2.37;;;1.80;;
5559;SDS011;2803;47.916;8.074;2023-04-24T05:52:09;3.67;;;1.37;;
5559;SDS011;2803;47.916;8.074;2023-04-24T05:54:36;4.17;;;1.80;;
5559;SDS011;2803;47.916;8.074;2023-04-24T05:57:03;2.80;;;1.60;;
5559;SDS011;2803;47.916;8.074;2023-04-24T05:59:32;3.50;;;1.57;;
5559;SDS011;2803;47.916;8.074;2023-04-24T06:01:59;5.53;;;1.90;;
5559;SDS011;2803;47.916;8.074;2023-04-24T06:04:25;9.83;;;1.73;;
5559;SDS011;2803;47.916;8.074;2023-04-24T06:06:52;3.10;;;1.90;;
5559;SDS011;2803;47.916;8.074;2023-04-24T06:09:20;2.30;;;1.60;;
5559;SDS011;2803;47.916;8.074;2023-04-24T06:11:47;4.43;;;1.73;;
5559;SDS011;2803;47.916;8.074;2023-04-24T06:14:16;2.60;;;1.53;;
5559;SDS011;2803;47.916;8.074;2023-04-24T06:16:42;4.97;;;1.80;;
5559;SDS011;2803;47.916;8.074;2023-04-24T06:19:09;3.00;;;1.97;;
5559;SDS011;2803;47.916;8.074;2023-04-24T06:21:36;6.33;;;2.03;;
5559;SDS011;2803;47.916;8.074;2023-04-24T06:24:02;4.10;;;1.83;;
5559;SDS011;2803;47.916;8.074;2023-04-24T06:26:29;3.20;;;2.07;;
5559;SDS011;2803;47.916;8.074;2023-04-24T06:28:56;3.00;;;1.90;;
5559;SDS011;2803;47.916;8.074;2023-04-24T06:31:25;2.37;;;1.80;;
5559;SDS011;2803;47.916;8.074;2023-04-24T06:33:51;3.70;;;2.00;;
5559;SDS011;2803;47.916;8.074;2023-04-24T06:36:19;3.87;;;1.67;;
5559;SDS011;2803;47.916;8.074;2023-04-24T06:38:45;2.80;;;2.00;;
5559;SDS011;2803;47.916;8.074;2023-04-24T06:41:12;3.07;;;1.80;;
5559;SDS011;2803;47.916;8.074;2023-04-24T06:43:38;4.27;;;1.60;;
5559;SDS011;2803;47.916;8.074;2023-04-24T06:46:05;2.80;;;1.87;;
5559;SDS011;2803;47.916;8.074;2023-04-24T06:48:33;3.27;;;1.70;;
5559;SDS011;2803;47.916;8.074;2023-04-24T06:50:59;1.60;;;1.50;;
5559;SDS011;2803;47.916;8.074;2023-04-24T06:53:26;2.07;;;1.60;;
5559;SDS011;2803;47.916;8.074;2023-04-24T06:55:53;3.20;;;1.37;;
5559;SDS011;2803;47.916;8.074;2023-04-24T06:58:19;4.83;;;2.33;;
5559;SDS011;2803;47.916;8.074;2023-04-24T07:00:46;3.00;;;1.90;;
5559;SDS011;2803;47.916;8.074;2023-04-24T07:03:13;4.03;;;1.87;;
5559;SDS011;2803;47.916;8.074;2023-04-24T07:05:41;1.43;;;1.33;;
5559;SDS011;2803;47.916;8.074;2023-04-24T07:08:07;2.00;;;1.50;;
5559;SDS011;2803;47.916;8.074;2023-04-24T07:10:36;1.83;;;1.70;;
5559;SDS011;2803;47.916;8.074;2023-04-24T07:13:03;1.50;;;1.40;;
5559;SDS011;2803;47.916;8.074;2023-04-24T07:15:29;5.17;;;1.77;;
5559;SDS011;2803;47.916;8.074;2023-04-24T07:17:57;2.87;;;1.73;;
5559;SDS011;2803;47.916;8.074;2023-04-24T07:20:23;2.27;;;1.60;;
5559;SDS011;2803;47.916;8.074;2023-04-24T07:22:52;5.07;;;1.57;;
5559;SDS011;2803;47.916;8.074;2023-04-24T07:25:19;2.80;;;2.13;;
5559;SDS011;2803;47.916;8.074;2023-04-24T07:27:46;2.83;;;1.63;;
5559;SDS011;2803;47.916;8.074;2023-04-24T07:30:13;4.40;;;1.60;;
5559;SDS011;2803;47.916;8.074;2023-04-24T07:32:40;4.23;;;2.10;;
5559;SDS011;2803;47.916;8.074;2023-04-24T07:35:07;5.57;;;2.03;;
5559;SDS011;2803;47.916;8.074;2023-04-24T07:37:34;1.70;;;1.40;;
5559;SDS011;2803;47.916;8.074;2023-04-24T07:40:02;2.80;;;1.80;;
5559;SDS011;2803;47.916;8.074;2023-04-24T07:42:29;5.57;;;2.00;;
5559;SDS011;2803;47.916;8.074;2023-04-24T07:44:56;2.53;;;2.07;;
5559;SDS011;2803;47.916;8.074;2023-04-24T07:47:24;5.30;;;1.80;;
5559;SDS011;2803;47.916;8.074;2023-04-24T07:49:51;6.60;;;1.70;;
5559;SDS011;2803;47.916;8.074;2023-04-24T07:52:18;3.73;;;1.90;;
5559;SDS011;2803;47.916;8.074;2023-04-24T07:54:44;6.17;;;1.93;;
5559;SDS011;2803;47.916;8.074;2023-04-24T07:57:12;6.90;;;1.97;;
5559;SDS011;2803;47.916;8.074;2023-04-24T07:59:39;3.23;;;2.17;;
5559;SDS011;2803;47.916;8.074;2023-04-24T08:02:06;5.53;;;1.40;;
5559;SDS011;2803;47.916;8.074;2023-04-24T08:04:32;6.03;;;2.30;;
5559;SDS011;2803;47.916;8.074;2023-04-24T08:06:59;6.93;;;1.77;;
5559;SDS011;2803;47.916;8.074;2023-04-24T08:09:25;4.80;;;1.50;;
5559;SDS011;2803;47.916;8.074;2023-04-24T08:11:52;2.50;;;1.57;;
5559;SDS011;2803;47.916;8.074;2023-04-24T08:14:20;2.90;;;1.80;;
5559;SDS011;2803;47.916;8.074;2023-04-24T08:16:47;5.60;;;1.50;;
5559;SDS011;2803;47.916;8.074;2023-04-24T08:19:13;3.77;;;1.70;;
5559;SDS011;2803;47.916;8.074;2023-04-24T08:21:40;7.23;;;1.87;;
5559;SDS011;2803;47.916;8.074;2023-04-24T08:24:07;3.80;;;1.90;;
5559;SDS011;2803;47.916;8.074;2023-04-24T08:26:33;3.67;;;2.10;;
5559;SDS011;2803;47.916;8.074;2023-04-24T08:29:00;3.00;;;1.70;;
5559;SDS011;2803;47.916;8.074;2023-04-24T08:31:28;8.23;;;2.40;;
5559;SDS011;2803;47.916;8.074;2023-04-24T08:33:54;3.13;;;1.60;;
5559;SDS011;2803;47.916;8.074;2023-04-24T08:36:21;4.20;;;2.13;;
5559;SDS011;2803;47.916;8.074;2023-04-24T08:38:48;3.20;;;1.90;;
5559;SDS011;2803;47.916;8.074;2023-04-24T08:41:15;2.80;;;2.00;;
5559;SDS011;2803;47.916;8.074;2023-04-24T08:43:43;2.37;;;1.50;;
5559;SDS011;2803;47.916;8.074;2023-04-24T08:46:13;2.27;;;1.77;;
5559;SDS011;2803;47.916;8.074;2023-04-24T08:48:42;6.70;;;2.00;;
5559;SDS011;2803;47.916;8.074;2023-04-24T08:51:09;6.80;;;2.00;;
5559;SDS011;2803;47.916;8.074;2023-04-24T08:53:36;2.47;;;1.60;;
5559;SDS011;2803;47.916;8.074;2023-04-24T08:56:02;3.73;;;1.70;;
5559;SDS011;2803;47.916;8.074;2023-04-24T08:58:32;7.37;;;1.87;;
5559;SDS011;2803;47.916;8.074;2023-04-24T09:00:59;10.40;;;2.40;;
5559;SDS011;2803;47.916;8.074;2023-04-24T09:03:27;2.73;;;1.80;;
5559;SDS011;2803;47.916;8.074;2023-04-24T09:05:55;3.27;;;1.70;;
5559;SDS011;2803;47.916;8.074;2023-04-24T09:08:24;4.53;;;2.03;;
5559;SDS011;2803;47.916;8.074;2023-04-24T09:10:51;1.73;;;1.63;;
5559;SDS011;2803;47.916;8.074;2023-04-24T09:13:18;4.23;;;1.83;;
5559;SDS011;2803;47.916;8.074;2023-04-24T09:15:46;3.00;;;1.80;;
5559;SDS011;2803;47.916;8.074;2023-04-24T09:18:12;4.60;;;1.80;;
5559;SDS011;2803;47.916;8.074;2023-04-24T09:23:27;4.87;;;2.07;;
5559;SDS011;2803;47.916;8.074;2023-04-24T09:25:54;2.93;;;1.60;;
5559;SDS011;2803;47.916;8.074;2023-04-24T09:28:25;5.40;;;1.90;;
5559;SDS011;2803;47.916;8.074;2023-04-24T09:31:01;3.83;;;2.10;;
5559;SDS011;2803;47.916;8.074;2023-04-24T09:33:29;3.40;;;1.90;;
5559;SDS011;2803;47.916;8.074;2023-04-24T09:35:55;9.07;;;1.87;;
5559;SDS011;2803;47.916;8.074;2023-04-24T09:38:31;4.60;;;2.00;;
5559;SDS011;2803;47.916;8.074;2023-04-24T09:40:59;3.00;;;1.90;;
5559;SDS011;2803;47.916;8.074;2023-04-24T09:43:28;9.00;;;2.00;;
5559;SDS011;2803;47.916;8.074;2023-04-24T09:45:55;13.23;;;1.80;;
5559;SDS011;2803;47.916;8.074;2023-04-24T09:48:29;2.57;;;2.00;;
5559;SDS011;2803;47.916;8.074;2023-04-24T09:50:56;7.90;;;2.10;;
5559;SDS011;2803;47.916;8.074;2023-04-24T09:53:23;2.20;;;1.97;;
5559;SDS011;2803;47.916;8.074;2023-04-24T09:55:52;5.43;;;1.97;;
5559;SDS011;2803;47.916;8.074;2023-04-24T09:58:23;2.80;;;1.73;;
5559;SDS011;2803;47.916;8.074;2023-04-24T10:00:53;6.20;;;1.80;;
5559;SDS011;2803;47.916;8.074;2023-04-24T10:03:21;2.40;;;1.80;;
5559;SDS011;2803;47.916;8.074;2023-04-24T10:05:51;6.90;;;2.03;;
5559;SDS011;2803;47.916;8.074;2023-04-24T10:08:18;4.27;;;1.90;;
5559;SDS011;2803;47.916;8.074;2023-04-24T10:10:45;6.20;;;1.90;;
5559;SDS011;2803;47.916;8.074;2023-04-24T10:13:14;4.13;;;1.40;;
5559;SDS011;2803;47.916;8.074;2023-04-24T10:15:41;5.63;;;1.57;;
5559;SDS011;2803;47.916;8.074;2023-04-24T10:18:08;6.23;;;1.60;;
5559;SDS011;2803;47.916;8.074;2023-04-24T10:20:36;3.97;;;1.93;;
5559;SDS011;2803;47.916;8.074;2023-04-24T10:23:04;3.23;;;1.70;;
5559;SDS011;2803;47.916;8.074;2023-04-24T10:25:32;3.10;;;1.50;;
5559;SDS011;2803;47.916;8.074;2023-04-24T10:28:00;4.03;;;1.60;;
5559;SDS011;2803;47.916;8.074;2023-04-24T10:30:29;3.33;;;1.83;;
5559;SDS011;2803;47.916;8.074;2023-04-24T10:32:59;1.90;;;1.70;;
5559;SDS011;2803;47.916;8.074;2023-04-24T10:35:27;3.90;;;1.53;;
5559;SDS011;2803;47.916;8.074;2023-04-24T10:37:59;1.60;;;1.40;;
5559;SDS011;2803;47.916;8.074;2023-04-24T10:40:30;6.77;;;1.20;;
5559;SDS011;2803;47.916;8.074;2023-04-24T10:43:01;4.40;;;1.47;;
5559;SDS011;2803;47.916;8.074;2023-04-24T10:45:32;3.93;;;1.70;;
5559;SDS011;2803;47.916;8.074;2023-04-24T10:48:01;2.00;;;1.20;;
5559;SDS011;2803;47.916;8.074;2023-04-24T10:50:45;2.63;;;1.30;;
5559;SDS011;2803;47.916;8.074;2023-04-24T10:53:15;4.83;;;1.30;;
5559;SDS011;2803;47.916;8.074;2023-04-24T10:55:44;2.17;;;1.40;;
5559;SDS011;2803;47.916;8.074;2023-04-24T10:58:13;1.27;;;1.10;;
5559;SDS011;2803;47.916;8.074;2023-04-24T11:00:43;3.80;;;1.20;;
5559;SDS011;2803;47.916;8.074;2023-04-24T11:03:23;10.00;;;1.40;;
5559;SDS011;2803;47.916;8.074;2023-04-24T11:05:53;2.03;;;1.10;;
5559;SDS011;2803;47.916;8.074;2023-04-24T11:08:23;3.33;;;1.40;;
5559;SDS011;2803;47.916;8.074;2023-04-24T11:10:56;3.97;;;1.20;;
5559;SDS011;2803;47.916;8.074;2023-04-24T11:16:27;2.10;;;1.30;;
5559;SDS011;2803;47.916;8.074;2023-04-24T11:19:00;2.13;;;1.30;;
5559;SDS011;2803;47.916;8.074;2023-04-24T11:21:30;4.70;;;1.50;;
5559;SDS011;2803;47.916;8.074;2023-04-24T11:23:57;2.60;;;1.30;;
5559;SDS011;2803;47.916;8.074;2023-04-24T11:26:24;2.10;;;1.20;;
5559;SDS011;2803;47.916;8.074;2023-04-24T11:29:05;8.63;;;2.37;;
5559;SDS011;2803;47.916;8.074;2023-04-24T11:31:35;2.33;;;1.20;;
5559;SDS011;2803;47.916;8.074;2023-04-24T11:34:06;3.57;;;1.13;;
5559;SDS011;2803;47.916;8.074;2023-04-24T11:36:34;4.73;;;1.37;;
5559;SDS011;2803;47.916;8.074;2023-04-24T11:39:01;2.00;;;1.57;;
5559;SDS011;2803;47.916;8.074;2023-04-24T11:41:28;2.00;;;1.10;;
5559;SDS011;2803;47.916;8.074;2023-04-24T11:43:55;3.87;;;1.80;;
5559;SDS011;2803;47.916;8.074;2023-04-24T11:46:22;3.97;;;1.30;;
5559;SDS011;2803;47.916;8.074;2023-04-24T11:48:53;2.40;;;1.50;;
5559;SDS011;2803;47.916;8.074;2023-04-24T11:51:20;2.93;;;1.40;;
5559;SDS011;2803;47.916;8.074;2023-04-24T11:53:48;5.77;;;1.23;;
5559;SDS011;2803;47.916;8.074;2023-04-24T11:56:16;3.73;;;1.33;;
5559;SDS011;2803;47.916;8.074;2023-04-24T11:58:44;2.27;;;1.50;;
5559;SDS011;2803;47.916;8.074;2023-04-24T12:01:11;2.30;;;1.43;;
5559;SDS011;2803;47.916;8.074;2023-04-24T12:03:38;4.87;;;1.30;;
5559;SDS011;2803;47.916;8.074;2023-04-24T12:06:06;5.30;;;1.33;;
5559;SDS011;2803;47.916;8.074;2023-04-24T12:08:33;2.17;;;1.40;;
5559;SDS011;2803;47.916;8.074;2023-04-24T12:11:00;2.30;;;1.30;;
5559;SDS011;2803;47.916;8.074;2023-04-24T12:13:27;7.20;;;1.60;;
5559;SDS011;2803;47.916;8.074;2023-04-24T12:15:54;4.43;;;1.93;;
5559;SDS011;2803;47.916;8.074;2023-04-24T12:18:22;2.70;;;1.30;;
5559;SDS011;2803;47.916;8.074;2023-04-24T12:20:49;3.83;;;1.40;;
5559;SDS011;2803;47.916;8.074;2023-04-24T12:23:28;3.90;;;1.73;;
5559;SDS011;2803;47.916;8.074;2023-04-24T12:26:00;2.17;;;1.70;;
5559;SDS011;2803;47.916;8.074;2023-04-24T12:28:34;7.53;;;2.23;;
5559;SDS011;2803;47.916;8.074;2023-04-24T12:31:01;4.07;;;1.70;;
5559;SDS011;2803;47.916;8.074;2023-04-24T12:33:31;4.13;;;1.60;;
5559;SDS011;2803;47.916;8.074;2023-04-24T12:35:59;1.50;;;1.20;;
5559;SDS011;2803;47.916;8.074;2023-04-24T12:38:27;4.83;;;1.50;;
5559;SDS011;2803;47.916;8.074;2023-04-24T12:41:02;2.87;;;1.30;;
5559;SDS011;2803;47.916;8.074;2023-04-24T12:43:30;1.90;;;1.37;;
5559;SDS011;2803;47.916;8.074;2023-04-24T12:45:57;3.77;;;1.53;;
5559;SDS011;2803;47.916;8.074;2023-04-24T12:48:24;5.90;;;2.00;;
5559;SDS011;2803;47.916;8.074;2023-04-24T12:50:50;3.00;;;1.67;;
5559;SDS011;2803;47.916;8.074;2023-04-24T12:53:17;5.50;;;1.73;;
5559;SDS011;2803;47.916;8.074;2023-04-24T12:55:45;2.03;;;1.30;;
5559;SDS011;2803;47.916;8.074;2023-04-24T12:58:17;3.83;;;1.70;;
5559;SDS011;2803;47.916;8.074;2023-04-24T13:00:44;2.70;;;1.60;;
5559;SDS011;2803;47.916;8.074;2023-04-24T13:03:11;2.40;;;1.60;;
5559;SDS011;2803;47.916;8.074;2023-04-24T13:05:38;1.80;;;1.27;;
5559;SDS011;2803;47.916;8.074;2023-04-24T13:08:04;6.17;;;1.50;;
5559;SDS011;2803;47.916;8.074;2023-04-24T13:10:31;1.77;;;1.20;;
5559;SDS011;2803;47.916;8.074;2023-04-24T13:12:59;3.87;;;1.57;;
5559;SDS011;2803;47.916;8.074;2023-04-24T13:15:25;4.53;;;1.87;;
5559;SDS011;2803;47.916;8.074;2023-04-24T13:17:52;7.17;;;1.80;;
5559;SDS011;2803;47.916;8.074;2023-04-24T13:20:19;3.37;;;1.60;;
5559;SDS011;2803;47.916;8.074;2023-04-24T13:22:45;7.00;;;1.80;;
5559;SDS011;2803;47.916;8.074;2023-04-24T13:25:12;2.17;;;1.53;;
5559;SDS011;2803;47.916;8.074;2023-04-24T13:27:41;3.00;;;1.73;;
5559;SDS011;2803;47.916;8.074;2023-04-24T13:30:10;4.53;;;1.97;;
5559;SDS011;2803;47.916;8.074;2023-04-24T13:32:37;4.30;;;1.50;;
5559;SDS011;2803;47.916;8.074;2023-04-24T13:35:04;8.53;;;1.80;;
5559;SDS011;2803;47.916;8.074;2023-04-24T13:37:30;4.87;;;1.70;;
5559;SDS011;2803;47.916;8.074;2023-04-24T13:39:57;4.17;;;1.83;;
5559;SDS011;2803;47.916;8.074;2023-04-24T13:42:24;2.20;;;1.60;;
5559;SDS011;2803;47.916;8.074;2023-04-24T13:44:50;4.60;;;1.80;;
5559;SDS011;2803;47.916;8.074;2023-04-24T13:47:20;2.17;;;1.83;;
5559;SDS011;2803;47.916;8.074;2023-04-24T13:49:46;2.40;;;1.90;;
5559;SDS011;2803;47.916;8.074;2023-04-24T13:52:13;5.13;;;1.60;;
5559;SDS011;2803;47.916;8.074;2023-04-24T13:54:40;3.73;;;1.70;;
5559;SDS011;2803;47.916;8.074;2023-04-24T13:57:07;6.80;;;2.10;;
5559;SDS011;2803;47.916;8.074;2023-04-24T13:59:33;3.20;;;1.97;;
5559;SDS011;2803;47.916;8.074;2023-04-24T14:02:00;3.97;;;2.00;;
5559;SDS011;2803;47.916;8.074;2023-04-24T14:04:28;3.60;;;2.00;;
5559;SDS011;2803;47.916;8.074;2023-04-24T14:06:55;2.20;;;2.00;;
5559;SDS011;2803;47.916;8.074;2023-04-24T14:09:22;2.83;;;1.50;;
5559;SDS011;2803;47.916;8.074;2023-04-24T14:11:48;4.60;;;1.70;;
5559;SDS011;2803;47.916;8.074;2023-04-24T14:14:17;1.87;;;1.50;;
5559;SDS011;2803;47.916;8.074;2023-04-24T14:16:44;4.07;;;1.63;;
5559;SDS011;2803;47.916;8.074;2023-04-24T14:19:10;2.60;;;1.70;;
5559;SDS011;2803;47.916;8.074;2023-04-24T14:21:38;4.50;;;1.50;;
5559;SDS011;2803;47.916;8.074;2023-04-24T14:24:05;8.50;;;1.70;;
5559;SDS011;2803;47.916;8.074;2023-04-24T14:26:31;2.33;;;1.43;;
5559;SDS011;2803;47.916;8.074;2023-04-24T14:28:58;3.63;;;1.70;;
5559;SDS011;2803;47.916;8.074;2023-04-24T14:31:25;8.37;;;2.33;;
5559;SDS011;2803;47.916;8.074;2023-04-24T14:33:51;3.50;;;1.57;;
5559;SDS011;2803;47.916;8.074;2023-04-24T14:36:18;4.03;;;1.73;;
5559;SDS011;2803;47.916;8.074;2023-04-24T14:38:46;6.70;;;1.67;;
5559;SDS011;2803;47.916;8.074;2023-04-24T14:41:12;2.47;;;1.83;;
5559;SDS011;2803;47.916;8.074;2023-04-24T14:43:39;2.50;;;1.80;;
5559;SDS011;2803;47.916;8.074;2023-04-24T14:46:06;1.87;;;1.40;;
5559;SDS011;2803;47.916;8.074;2023-04-24T14:48:32;2.23;;;1.33;;
5559;SDS011;2803;47.916;8.074;2023-04-24T14:50:59;3.33;;;1.80;;
5559;SDS011;2803;47.916;8.074;2023-04-24T14:53:25;1.77;;;1.40;;
5559;SDS011;2803;47.916;8.074;2023-04-24T14:55:53;3.20;;;1.83;;
5559;SDS011;2803;47.916;8.074;2023-04-24T14:58:20;2.53;;;1.60;;
5559;SDS011;2803;47.916;8.074;2023-04-24T15:00:46;3.33;;;1.60;;
5559;SDS011;2803;47.916;8.074;2023-04-24T15:03:16;1.70;;;1.50;;
5559;SDS011;2803;47.916;8.074;2023-04-24T15:05:44;2.97;;;2.10;;
5559;SDS011;2803;47.916;8.074;2023-04-24T15:08:11;5.40;;;1.70;;
5559;SDS011;2803;47.916;8.074;2023-04-24T15:10:37;1.67;;;1.57;;
5559;SDS011;2803;47.916;8.074;2023-04-24T15:13:05;1.93;;;1.60;;
5559;SDS011;2803;47.916;8.074;2023-04-24T15:15:32;2.40;;;1.60;;
5559;SDS011;2803;47.916;8.074;2023-04-24T15:17:58;2.50;;;1.80;;
5559;SDS011;2803;47.916;8.074;2023-04-24T15:20:25;5.43;;;1.50;;
5559;SDS011;2803;47.916;8.074;2023-04-24T15:22:51;3.73;;;1.90;;